Time;durP1;ratioP1;P1;durP2;ratioP2;P2;SDS_P1;SDS_P2;PMS_P1;PMS_P2;Temp;Humidity;BMP_temperature;BMP_pressure;BME280_temperature;BME280_humidity;BME280_pressure;Samples;Min_cycle;Max_cycle;Signal;HPM_P1;HPM_P2
2023/12/30 00:02:04;;;;;;;4.03;0.82;;;7.30;99.90;;;;;;6139489;23;20053;-35
2023/12/30 00:04:30;;;;;;;4.90;1.10;;;7.30;99.90;;;;;;6139427;23;20009;-35
2023/12/30 00:06:56;;;;;;;4.68;1.00;;;7.30;99.90;;;;;;6138278;23;20734;-35
2023/12/30 00:09:21;;;;;;;5.53;1.55;;;7.30;99.90;;;;;;6138862;23;20009;-35
2023/12/30 00:11:47;;;;;;;2.15;0.90;;;7.20;99.90;;;;;;6139230;23;20064;-36
2023/12/30 00:14:12;;;;;;;2.42;0.88;;;7.20;99.90;;;;;;6138119;23;20012;-35
2023/12/30 00:16:39;;;;;;;3.72;1.02;;;7.10;99.90;;;;;;6139467;23;20088;-35
2023/12/30 00:19:05;;;;;;;5.20;1.20;;;7.10;99.90;;;;;;6138397;23;20119;-35
2023/12/30 00:21:31;;;;;;;5.30;0.90;;;7.10;99.90;;;;;;6140176;23;20017;-35
2023/12/30 00:23:57;;;;;;;4.18;1.23;;;7.10;99.90;;;;;;6138916;23;20025;-35
2023/12/30 00:26:24;;;;;;;5.07;1.15;;;7.00;99.90;;;;;;6138821;23;20084;-34
2023/12/30 00:28:50;;;;;;;1.42;0.93;;;7.00;99.90;;;;;;6138943;23;20005;-40
2023/12/30 00:31:26;;;;;;;5.03;1.63;;;7.00;99.90;;;;;;6137792;23;20016;-35
2023/12/30 00:33:53;;;;;;;5.43;1.10;;;6.90;99.90;;;;;;6138588;23;20421;-35
2023/12/30 00:36:18;;;;;;;5.68;1.33;;;6.90;99.90;;;;;;6138847;23;20009;-35
2023/12/30 00:38:44;;;;;;;3.33;1.10;;;6.90;99.90;;;;;;6139003;23;20021;-35
2023/12/30 00:41:10;;;;;;;6.95;1.23;;;6.90;99.90;;;;;;6138353;23;20412;-35
2023/12/30 00:43:37;;;;;;;3.58;1.30;;;6.90;99.90;;;;;;6139628;23;20040;-34
2023/12/30 00:46:02;;;;;;;4.60;1.50;;;6.90;99.90;;;;;;6139647;23;20060;-34
2023/12/30 00:48:28;;;;;;;3.65;1.30;;;6.90;99.90;;;;;;6138493;23;20037;-35
2023/12/30 00:50:53;;;;;;;4.72;1.50;;;6.80;99.90;;;;;;6138910;23;20239;-34
2023/12/30 00:53:20;;;;;;;4.82;1.50;;;6.80;99.90;;;;;;6138900;23;20037;-35
2023/12/30 00:55:46;;;;;;;4.25;1.40;;;6.80;99.90;;;;;;6138177;23;20002;-35
2023/12/30 00:58:11;;;;;;;5.38;1.40;;;6.80;99.90;;;;;;6139351;23;20005;-35
2023/12/30 01:00:37;;;;;;;8.13;1.90;;;6.80;99.90;;;;;;6139071;23;20032;-35
2023/12/30 01:03:03;;;;;;;3.92;1.20;;;6.80;99.90;;;;;;6138388;23;20021;-36
2023/12/30 01:05:28;;;;;;;5.50;1.52;;;6.80;99.90;;;;;;6139902;23;20013;-35
2023/12/30 01:07:54;;;;;;;6.07;1.75;;;6.80;99.90;;;;;;6138676;23;20019;-34
2023/12/30 01:10:19;;;;;;;3.72;1.27;;;6.80;99.90;;;;;;6138336;23;20009;-34
2023/12/30 01:12:45;;;;;;;3.20;1.02;;;6.80;99.90;;;;;;6138917;23;20006;-34
2023/12/30 01:15:11;;;;;;;4.00;1.13;;;6.80;99.90;;;;;;6137852;23;20002;-35
2023/12/30 01:17:36;;;;;;;4.45;1.30;;;6.90;99.90;;;;;;6137954;23;20014;-35
2023/12/30 01:20:02;;;;;;;6.72;1.08;;;6.80;99.90;;;;;;6139652;23;20092;-35
2023/12/30 01:22:28;;;;;;;5.22;1.20;;;6.80;99.90;;;;;;6139874;23;20005;-35
2023/12/30 01:24:53;;;;;;;5.10;1.70;;;6.90;99.90;;;;;;6139034;23;20333;-35
2023/12/30 01:27:31;;;;;;;2.97;1.23;;;6.90;99.90;;;;;;6138790;23;20768;-35
2023/12/30 01:29:57;;;;;;;4.35;0.90;;;6.80;99.90;;;;;;6137617;23;20571;-34
2023/12/30 01:32:22;;;;;;;4.20;1.30;;;6.90;99.90;;;;;;6138635;23;20084;-35
2023/12/30 01:34:48;;;;;;;5.55;1.02;;;6.80;99.90;;;;;;6139083;23;20080;-34
2023/12/30 01:37:13;;;;;;;8.32;2.05;;;6.90;99.90;;;;;;6137881;23;20005;-35
2023/12/30 01:39:39;;;;;;;6.10;1.40;;;6.90;99.90;;;;;;6138545;23;20509;-35
2023/12/30 01:42:04;;;;;;;5.53;1.40;;;6.80;99.90;;;;;;6138587;23;20013;-36
2023/12/30 01:44:30;;;;;;;9.93;1.35;;;6.90;99.90;;;;;;6138175;23;20532;-35
2023/12/30 01:46:56;;;;;;;6.07;1.40;;;6.90;99.90;;;;;;6138448;23;20597;-34
2023/12/30 01:49:22;;;;;;;4.55;1.15;;;6.90;99.90;;;;;;6138949;23;20017;-35
2023/12/30 01:51:49;;;;;;;7.43;1.50;;;6.90;99.90;;;;;;6138646;23;20001;-35
2023/12/30 01:54:17;;;;;;;4.18;1.52;;;6.90;99.90;;;;;;6138106;23;20020;-35
2023/12/30 01:56:43;;;;;;;4.25;1.05;;;7.00;99.90;;;;;;6137992;23;20567;-34
2023/12/30 01:59:11;;;;;;;4.15;1.10;;;6.90;99.90;;;;;;6138678;23;20013;-34
2023/12/30 02:01:36;;;;;;;3.83;1.15;;;6.90;99.90;;;;;;6138961;23;20016;-35
2023/12/30 02:04:02;;;;;;;7.70;1.30;;;6.90;99.90;;;;;;6137964;23;20010;-34
2023/12/30 02:06:27;;;;;;;5.70;1.52;;;6.90;99.90;;;;;;6137943;23;20108;-34
2023/12/30 02:08:56;;;;;;;7.50;1.88;;;7.00;99.90;;;;;;6137718;23;20029;-35
2023/12/30 02:11:22;;;;;;;5.90;1.63;;;6.90;99.90;;;;;;6138490;23;20017;-35
2023/12/30 02:13:48;;;;;;;6.43;1.33;;;7.00;99.90;;;;;;6137423;23;20009;-35
2023/12/30 02:16:14;;;;;;;4.28;1.20;;;7.00;99.90;;;;;;6138793;23;20701;-35
2023/12/30 02:18:39;;;;;;;6.45;1.25;;;7.00;99.90;;;;;;6138248;23;20014;-35
2023/12/30 02:21:05;;;;;;;2.67;1.10;;;7.00;99.90;;;;;;6137640;23;20088;-35
2023/12/30 02:23:30;;;;;;;10.15;1.45;;;7.00;99.90;;;;;;6138084;23;20518;-34
2023/12/30 02:25:56;;;;;;;3.63;1.25;;;7.00;99.90;;;;;;6137292;23;20080;-35
2023/12/30 02:28:22;;;;;;;5.20;1.17;;;7.00;99.90;;;;;;6137678;23;20668;-34
2023/12/30 02:30:47;;;;;;;4.10;1.20;;;7.00;99.90;;;;;;6111128;23;20009;-34
2023/12/30 02:33:13;;;;;;;5.05;1.00;;;7.00;99.90;;;;;;6135817;23;20013;-34
2023/12/30 02:35:42;;;;;;;4.50;0.98;;;7.00;99.90;;;;;;6138561;23;20064;-34
2023/12/30 02:38:08;;;;;;;6.20;1.63;;;7.00;99.90;;;;;;6138084;23;20005;-36
2023/12/30 02:40:36;;;;;;;4.93;1.13;;;7.00;99.90;;;;;;6137515;23;20016;-34
2023/12/30 02:43:01;;;;;;;4.55;1.10;;;7.00;99.90;;;;;;6137463;23;20095;-34
2023/12/30 02:45:27;;;;;;;3.80;1.10;;;7.00;99.90;;;;;;6137604;23;20089;-36
2023/12/30 02:47:52;;;;;;;4.88;1.10;;;7.00;99.90;;;;;;6137481;23;20044;-34
2023/12/30 02:50:18;;;;;;;4.80;1.10;;;7.00;99.90;;;;;;6137468;23;20447;-35
2023/12/30 02:52:44;;;;;;;4.57;1.63;;;7.00;99.90;;;;;;6138065;23;20017;-35
2023/12/30 02:55:10;;;;;;;7.53;1.48;;;7.00;99.90;;;;;;6136981;23;20009;-35
2023/12/30 02:57:35;;;;;;;6.35;1.48;;;7.00;99.90;;;;;;6138456;23;20013;-34
2023/12/30 03:00:01;;;;;;;4.03;1.20;;;7.10;99.90;;;;;;6138739;23;20012;-34
2023/12/30 03:02:26;;;;;;;6.50;1.63;;;7.10;99.90;;;;;;6137432;23;20784;-34
2023/12/30 03:04:52;;;;;;;7.60;1.77;;;7.10;99.90;;;;;;6138031;23;20799;-35
2023/12/30 03:07:18;;;;;;;4.72;1.30;;;7.10;99.90;;;;;;6138193;23;20720;-36
2023/12/30 03:09:45;;;;;;;6.75;1.60;;;7.10;99.90;;;;;;6137069;23;20005;-36
2023/12/30 03:12:10;;;;;;;4.05;1.13;;;7.10;99.90;;;;;;6138765;23;20009;-35
2023/12/30 03:14:36;;;;;;;5.95;1.52;;;7.10;99.90;;;;;;6138861;23;20425;-36
2023/12/30 03:17:02;;;;;;;5.85;1.30;;;7.10;99.90;;;;;;6138098;23;20005;-35
2023/12/30 03:19:27;;;;;;;3.35;1.23;;;7.10;99.90;;;;;;6137683;23;20002;-35
2023/12/30 03:21:53;;;;;;;10.43;2.20;;;7.10;99.90;;;;;;6138002;23;20100;-35
2023/12/30 03:24:22;;;;;;;6.70;1.60;;;7.10;99.90;;;;;;6139586;23;20009;-35
2023/12/30 03:26:48;;;;;;;8.43;1.52;;;7.10;99.90;;;;;;6138514;23;20009;-36
2023/12/30 03:29:13;;;;;;;8.68;1.50;;;7.10;99.90;;;;;;6138110;23;20650;-35
2023/12/30 03:31:39;;;;;;;10.70;2.45;;;7.10;99.90;;;;;;6138044;23;20109;-35
2023/12/30 03:34:05;;;;;;;9.63;2.10;;;7.10;99.90;;;;;;6136490;23;20088;-35
2023/12/30 03:36:31;;;;;;;6.35;1.65;;;7.20;99.90;;;;;;6136341;23;20096;-35
2023/12/30 03:38:56;;;;;;;9.45;1.45;;;7.20;99.90;;;;;;6136710;23;20005;-35
2023/12/30 03:41:22;;;;;;;12.43;2.25;;;7.10;99.90;;;;;;6138521;23;20006;-34
2023/12/30 03:43:49;;;;;;;9.00;1.65;;;7.10;99.90;;;;;;6137184;23;20043;-35
2023/12/30 03:46:14;;;;;;;4.95;1.70;;;7.10;99.90;;;;;;6137181;23;20328;-35
2023/12/30 03:48:40;;;;;;;5.15;1.38;;;7.20;99.90;;;;;;6137768;23;20005;-35
2023/12/30 03:51:06;;;;;;;8.18;1.38;;;7.10;99.90;;;;;;6136733;23;20802;-35
2023/12/30 03:53:32;;;;;;;4.55;1.77;;;7.10;99.90;;;;;;6137810;23;20015;-35
2023/12/30 03:55:58;;;;;;;8.02;1.67;;;7.20;99.90;;;;;;6137637;23;20018;-35
2023/12/30 03:58:24;;;;;;;6.88;1.90;;;7.20;99.90;;;;;;6136442;23;20112;-35
2023/12/30 04:00:49;;;;;;;8.25;1.80;;;7.20;99.90;;;;;;6137372;23;20054;-35
2023/12/30 04:03:15;;;;;;;7.20;1.45;;;7.20;99.90;;;;;;6136733;23;20021;-35
2023/12/30 04:05:47;;;;;;;4.07;1.20;;;7.20;99.90;;;;;;6137544;23;20012;-35
2023/12/30 04:08:12;;;;;;;7.10;1.80;;;7.20;99.90;;;;;;6138573;23;20088;-35
2023/12/30 04:10:41;;;;;;;7.75;1.58;;;7.20;99.90;;;;;;6139157;23;20141;-35
2023/12/30 04:13:06;;;;;;;7.78;1.45;;;7.20;99.90;;;;;;6138301;23;20500;-36
2023/12/30 04:15:32;;;;;;;6.93;1.17;;;7.20;99.90;;;;;;6139155;23;20164;-35
2023/12/30 04:17:58;;;;;;;6.05;1.30;;;7.20;99.90;;;;;;6138912;23;20005;-35
2023/12/30 04:20:26;;;;;;;3.40;1.73;;;7.20;99.90;;;;;;6139067;23;20238;-35
2023/12/30 04:22:52;;;;;;;7.32;1.42;;;7.20;99.90;;;;;;6139189;23;20045;-35
2023/12/30 04:25:18;;;;;;;4.13;1.60;;;7.20;99.90;;;;;;6137964;23;20033;-35
2023/12/30 04:27:43;;;;;;;6.78;1.58;;;7.20;99.90;;;;;;6139138;23;20006;-36
2023/12/30 04:30:09;;;;;;;8.18;1.65;;;7.20;99.90;;;;;;6139646;23;20010;-35
2023/12/30 04:32:35;;;;;;;9.13;1.38;;;7.20;99.90;;;;;;6139800;23;20017;-34
2023/12/30 04:35:00;;;;;;;5.32;1.45;;;7.20;99.90;;;;;;6139226;23;20006;-35
2023/12/30 04:37:26;;;;;;;5.18;1.40;;;7.20;99.90;;;;;;6139393;23;20368;-35
2023/12/30 04:39:52;;;;;;;7.60;1.48;;;7.20;99.90;;;;;;6138270;23;20349;-35
2023/12/30 04:42:17;;;;;;;8.07;2.63;;;7.20;99.90;;;;;;6138798;23;20105;-35
2023/12/30 04:44:43;;;;;;;3.08;1.23;;;7.20;99.90;;;;;;6139503;23;20013;-35
2023/12/30 04:47:12;;;;;;;7.60;1.38;;;7.20;99.90;;;;;;6137161;23;20009;-35
2023/12/30 04:49:37;;;;;;;9.73;1.77;;;7.10;99.90;;;;;;6138918;23;20811;-34
2023/12/30 04:52:03;;;;;;;5.90;1.38;;;7.20;99.90;;;;;;6138821;23;20010;-35
2023/12/30 04:54:30;;;;;;;8.32;1.40;;;7.10;99.90;;;;;;6139154;23;20009;-35
2023/12/30 04:56:56;;;;;;;7.30;1.40;;;7.10;99.90;;;;;;6139224;23;20017;-35
2023/12/30 04:59:21;;;;;;;5.28;1.27;;;7.10;99.90;;;;;;6139996;23;20009;-35
2023/12/30 05:01:47;;;;;;;7.72;1.70;;;7.10;99.90;;;;;;6138080;23;20009;-35
2023/12/30 05:04:13;;;;;;;6.85;1.70;;;7.10;99.90;;;;;;6138496;23;20029;-35
2023/12/30 05:06:38;;;;;;;8.63;1.35;;;7.20;99.90;;;;;;6140279;23;20041;-35
2023/12/30 05:09:05;;;;;;;8.05;1.70;;;7.20;99.90;;;;;;6138004;23;20025;-35
2023/12/30 05:11:30;;;;;;;5.97;1.55;;;7.20;99.90;;;;;;6138583;23;20494;-35
2023/12/30 05:13:56;;;;;;;8.43;2.97;;;7.10;99.90;;;;;;6138742;23;20064;-35
2023/12/30 05:16:22;;;;;;;4.72;1.40;;;7.10;99.90;;;;;;6138903;23;20415;-35
2023/12/30 05:18:47;;;;;;;8.77;2.03;;;7.10;99.90;;;;;;6138520;23;20006;-36
2023/12/30 05:21:17;;;;;;;6.22;1.60;;;7.10;99.90;;;;;;6139246;23;20669;-35
2023/12/30 05:23:43;;;;;;;5.72;1.50;;;7.10;99.90;;;;;;6138214;23;20129;-35
2023/12/30 05:26:12;;;;;;;5.70;1.80;;;7.10;99.90;;;;;;6138037;23;20053;-36
2023/12/30 05:28:38;;;;;;;6.85;1.80;;;7.10;99.90;;;;;;6138125;23;20100;-36
2023/12/30 05:31:04;;;;;;;9.27;1.58;;;7.10;99.90;;;;;;6138349;23;20014;-36
2023/12/30 05:33:29;;;;;;;5.97;1.85;;;7.10;99.90;;;;;;6111393;23;20508;-35
2023/12/30 05:35:55;;;;;;;8.50;2.05;;;7.10;99.90;;;;;;6137299;23;20081;-36
2023/12/30 05:38:21;;;;;;;5.43;1.25;;;7.10;99.90;;;;;;6139106;23;20006;-35
2023/12/30 05:40:47;;;;;;;8.43;2.58;;;7.00;99.90;;;;;;6138750;23;20697;-34
2023/12/30 05:43:12;;;;;;;7.93;1.60;;;7.00;99.90;;;;;;6137025;23;20524;-35
2023/12/30 05:45:39;;;;;;;6.60;1.50;;;7.00;99.90;;;;;;6139410;23;20005;-35
2023/12/30 05:48:04;;;;;;;5.10;1.77;;;7.00;99.90;;;;;;6139142;23;20326;-34
2023/12/30 05:50:30;;;;;;;5.07;1.45;;;7.00;99.90;;;;;;6138383;23;20032;-35
2023/12/30 05:52:56;;;;;;;7.63;1.35;;;7.00;99.90;;;;;;6139232;23;20077;-34
2023/12/30 05:55:22;;;;;;;6.20;1.30;;;7.00;99.90;;;;;;6140165;23;20104;-35
2023/12/30 05:57:47;;;;;;;6.38;1.48;;;7.00;99.90;;;;;;6138750;23;20092;-39
2023/12/30 06:00:19;;;;;;;4.68;1.55;;;7.00;99.90;;;;;;6139050;23;20002;-34
2023/12/30 06:02:44;;;;;;;5.28;1.58;;;7.00;99.90;;;;;;6138765;23;20071;-34
2023/12/30 06:05:10;;;;;;;6.53;2.58;;;7.00;99.90;;;;;;6137779;23;20823;-34
2023/12/30 06:07:38;;;;;;;8.85;1.98;;;7.00;99.90;;;;;;6138766;23;20010;-34
2023/12/30 06:10:04;;;;;;;6.35;1.80;;;7.00;99.90;;;;;;6138275;23;20475;-36
2023/12/30 06:12:31;;;;;;;4.75;1.73;;;7.00;99.90;;;;;;6137780;23;20601;-36
2023/12/30 06:14:56;;;;;;;3.97;1.55;;;7.00;99.90;;;;;;6138066;23;20005;-36
2023/12/30 06:17:22;;;;;;;7.57;1.77;;;7.00;99.90;;;;;;6139703;23;20005;-35
2023/12/30 06:19:47;;;;;;;5.47;1.50;;;7.00;99.90;;;;;;6138280;23;20087;-36
2023/12/30 06:22:13;;;;;;;4.18;1.30;;;7.00;99.90;;;;;;6137127;23;20607;-37
2023/12/30 06:24:38;;;;;;;7.13;1.42;;;7.00;99.90;;;;;;6138738;23;20025;-35
2023/12/30 06:27:04;;;;;;;6.97;1.27;;;7.00;99.90;;;;;;6137312;23;20010;-35
2023/12/30 06:29:30;;;;;;;10.10;2.67;;;7.00;99.90;;;;;;6138407;23;20571;-36
2023/12/30 06:31:55;;;;;;;11.23;2.03;;;7.00;99.90;;;;;;6138975;23;20080;-35
2023/12/30 06:34:21;;;;;;;8.43;1.70;;;7.00;99.90;;;;;;6139183;23;20627;-36
2023/12/30 06:36:47;;;;;;;5.45;2.05;;;7.00;99.90;;;;;;6138771;23;20029;-35
2023/12/30 06:39:13;;;;;;;6.05;1.40;;;7.00;99.90;;;;;;6138391;23;20009;-35
2023/12/30 06:41:40;;;;;;;7.05;2.05;;;6.90;99.90;;;;;;6140026;23;20012;-35
2023/12/30 06:44:05;;;;;;;6.70;1.52;;;7.00;99.90;;;;;;6137774;23;20449;-36
2023/12/30 06:46:33;;;;;;;4.72;1.48;;;6.90;99.90;;;;;;6137358;23;20048;-36
2023/12/30 06:48:59;;;;;;;5.57;1.77;;;7.00;99.90;;;;;;6138352;23;20369;-35
2023/12/30 06:51:27;;;;;;;9.15;1.70;;;6.90;99.90;;;;;;6138876;23;20005;-35
2023/12/30 06:53:53;;;;;;;3.60;1.52;;;6.90;99.90;;;;;;6137530;23;20006;-34
2023/12/30 06:56:21;;;;;;;6.88;1.52;;;7.00;99.90;;;;;;6137571;23;20006;-35
2023/12/30 06:58:47;;;;;;;6.22;1.58;;;7.00;99.90;;;;;;6138976;23;20009;-35
2023/12/30 07:01:13;;;;;;;5.28;1.58;;;6.90;99.90;;;;;;6135573;23;20009;-35
2023/12/30 07:03:39;;;;;;;3.55;1.50;;;6.90;99.90;;;;;;6138653;23;20025;-35
2023/12/30 07:06:05;;;;;;;3.63;1.40;;;6.90;99.90;;;;;;6137643;23;20010;-34
2023/12/30 07:08:31;;;;;;;4.55;1.58;;;6.90;99.90;;;;;;6136344;23;20535;-35
2023/12/30 07:10:57;;;;;;;8.38;2.28;;;6.90;99.90;;;;;;6137137;23;20001;-35
2023/12/30 07:13:22;;;;;;;7.88;2.20;;;6.90;99.90;;;;;;6135747;23;20088;-36
2023/12/30 07:15:50;;;;;;;6.28;2.17;;;6.90;99.90;;;;;;6136540;23;20002;-34
2023/12/30 07:18:17;;;;;;;8.98;3.20;;;6.90;99.90;;;;;;6136399;23;20780;-35
2023/12/30 07:20:43;;;;;;;10.90;2.95;;;6.90;99.90;;;;;;6137292;23;20311;-35
2023/12/30 07:23:08;;;;;;;8.23;2.47;;;6.90;99.90;;;;;;6135243;23;20040;-34
2023/12/30 07:25:34;;;;;;;15.50;3.10;;;6.90;99.90;;;;;;6136687;23;20006;-35
2023/12/30 07:27:59;;;;;;;7.03;2.30;;;6.90;99.90;;;;;;6136647;23;20717;-36
2023/12/30 07:30:31;;;;;;;8.43;2.40;;;6.80;99.90;;;;;;6135904;23;20310;-35
2023/12/30 07:32:56;;;;;;;8.15;2.30;;;6.80;99.90;;;;;;6137557;23;20001;-34
2023/12/30 07:35:22;;;;;;;6.10;2.17;;;6.80;99.90;;;;;;6137532;23;20006;-35
2023/12/30 07:37:48;;;;;;;7.90;2.10;;;6.80;99.90;;;;;;6136399;23;20006;-34
2023/12/30 07:40:14;;;;;;;7.07;2.85;;;6.80;99.90;;;;;;6136638;23;20068;-35
2023/12/30 07:42:40;;;;;;;9.27;2.67;;;6.80;99.90;;;;;;6139795;23;20021;-35
2023/12/30 07:45:06;;;;;;;12.05;3.45;;;6.80;99.90;;;;;;6138668;23;20009;-35
2023/12/30 07:47:33;;;;;;;7.95;2.88;;;6.80;99.90;;;;;;6138988;23;20091;-35
2023/12/30 07:49:58;;;;;;;8.25;2.53;;;6.80;99.90;;;;;;6138804;23;20026;-35
2023/12/30 07:52:24;;;;;;;8.38;2.45;;;6.70;99.90;;;;;;6139705;23;20036;-35
2023/12/30 07:54:49;;;;;;;5.88;2.20;;;6.80;99.90;;;;;;6139740;23;20125;-34
2023/12/30 07:57:15;;;;;;;5.38;2.55;;;6.70;99.90;;;;;;6138963;23;20006;-35
2023/12/30 07:59:41;;;;;;;10.00;2.55;;;6.70;99.90;;;;;;6138834;23;20029;-34
2023/12/30 08:02:06;;;;;;;7.68;2.08;;;6.70;99.90;;;;;;6138185;23;20080;-34
2023/12/30 08:04:32;;;;;;;10.07;3.50;;;6.70;99.90;;;;;;6137724;23;20092;-35
2023/12/30 08:06:57;;;;;;;6.80;2.45;;;6.70;99.90;;;;;;6139897;23;20006;-36
2023/12/30 08:09:23;;;;;;;6.75;2.17;;;6.70;99.90;;;;;;6139299;23;20017;-36
2023/12/30 08:11:49;;;;;;;8.32;2.40;;;6.70;99.90;;;;;;6139032;23;20818;-37
2023/12/30 08:14:17;;;;;;;7.38;2.17;;;6.70;99.90;;;;;;6138406;23;20048;-37
2023/12/30 08:16:43;;;;;;;7.03;1.88;;;6.70;99.90;;;;;;6139563;23;20009;-36
2023/12/30 08:19:08;;;;;;;4.47;1.95;;;6.70;99.90;;;;;;6138298;23;20002;-36
2023/12/30 08:21:37;;;;;;;6.70;2.17;;;6.70;99.90;;;;;;6139986;23;20080;-36
2023/12/30 08:24:06;;;;;;;6.32;2.00;;;6.70;99.90;;;;;;6139060;23;20017;-36
2023/12/30 08:26:32;;;;;;;7.82;1.80;;;6.70;99.90;;;;;;6138333;23;20002;-36
2023/12/30 08:28:57;;;;;;;9.05;2.38;;;6.80;99.90;;;;;;6138403;23;20016;-36
2023/12/30 08:31:23;;;;;;;5.68;2.00;;;6.70;99.90;;;;;;6137627;23;20086;-42
2023/12/30 08:33:50;;;;;;;9.05;2.47;;;6.80;99.90;;;;;;6139527;23;20013;-35
2023/12/30 08:36:16;;;;;;;12.77;2.05;;;6.80;99.90;;;;;;6138159;23;20774;-35
2023/12/30 08:38:42;;;;;;;7.50;1.80;;;6.80;99.90;;;;;;6139591;23;20080;-39
2023/12/30 08:41:14;;;;;;;9.90;2.45;;;6.80;99.90;;;;;;6139440;23;20480;-36
2023/12/30 08:43:41;;;;;;;7.00;1.80;;;6.80;99.90;;;;;;6140184;23;20108;-36
2023/12/30 08:46:06;;;;;;;8.52;2.53;;;6.80;99.90;;;;;;6137941;23;20873;-36
2023/12/30 08:48:32;;;;;;;5.47;1.60;;;6.90;99.90;;;;;;6140158;23;20009;-36
2023/12/30 08:50:57;;;;;;;8.35;2.53;;;6.90;99.90;;;;;;6138884;23;20457;-35
2023/12/30 08:53:24;;;;;;;10.10;2.20;;;6.90;99.90;;;;;;6138695;23;20056;-36
2023/12/30 08:55:54;;;;;;;11.05;2.80;;;6.90;99.90;;;;;;6140383;23;20032;-36
2023/12/30 08:58:26;;;;;;;5.97;1.88;;;7.00;99.90;;;;;;6140455;23;20093;-36
2023/12/30 09:00:53;;;;;;;7.45;2.05;;;7.00;99.90;;;;;;6140037;23;20001;-37
2023/12/30 09:03:18;;;;;;;6.22;2.20;;;7.00;99.90;;;;;;6139033;23;20022;-36
2023/12/30 09:05:44;;;;;;;5.85;1.50;;;7.10;99.90;;;;;;6140881;23;20381;-37
2023/12/30 09:08:10;;;;;;;6.65;1.60;;;7.10;99.90;;;;;;6138483;23;20080;-36
2023/12/30 09:10:37;;;;;;;9.43;2.90;;;7.10;99.90;;;;;;6140833;23;20005;-35
2023/12/30 09:13:03;;;;;;;6.40;1.70;;;7.20;99.90;;;;;;6140490;23;20829;-36
2023/12/30 09:15:29;;;;;;;7.88;2.38;;;7.20;99.90;;;;;;6138880;23;20005;-36
2023/12/30 09:17:58;;;;;;;7.82;2.17;;;7.20;99.90;;;;;;6140158;23;20017;-36
2023/12/30 09:20:24;;;;;;;8.25;2.00;;;7.20;99.90;;;;;;6140465;23;20097;-35
2023/12/30 09:22:50;;;;;;;6.43;2.10;;;7.30;99.90;;;;;;6140551;23;20711;-36
2023/12/30 09:25:16;;;;;;;7.20;2.10;;;7.30;99.90;;;;;;6140150;23;20083;-36
2023/12/30 09:27:42;;;;;;;7.35;2.75;;;7.40;99.90;;;;;;6139687;23;20017;-36
2023/12/30 09:30:08;;;;;;;7.15;2.35;;;7.40;99.90;;;;;;6138419;23;20705;-36
2023/12/30 09:32:34;;;;;;;8.90;1.95;;;7.40;99.90;;;;;;6140359;23;20001;-36
2023/12/30 09:35:02;;;;;;;7.90;2.15;;;7.40;99.90;;;;;;6140211;23;20009;-36
2023/12/30 09:37:28;;;;;;;7.38;1.90;;;7.40;99.90;;;;;;6140451;23;20001;-36
2023/12/30 09:39:54;;;;;;;6.22;1.75;;;7.50;99.90;;;;;;6141198;23;20017;-37
2023/12/30 09:42:20;;;;;;;5.30;1.80;;;7.50;99.90;;;;;;6139067;23;20009;-36
2023/12/30 09:44:47;;;;;;;7.80;2.00;;;7.40;99.90;;;;;;6140921;23;20009;-36
2023/12/30 09:47:13;;;;;;;8.05;1.80;;;7.50;99.90;;;;;;6140146;23;20009;-37
2023/12/30 09:49:40;;;;;;;3.90;1.42;;;7.50;99.90;;;;;;6139816;23;20093;-37
2023/12/30 09:52:06;;;;;;;7.53;1.73;;;7.60;99.90;;;;;;6139705;23;20067;-37
2023/12/30 09:54:35;;;;;;;7.40;2.10;;;7.60;99.90;;;;;;6140532;23;20814;-36
2023/12/30 09:57:02;;;;;;;7.55;2.50;;;7.70;99.90;;;;;;6139163;23;20007;-36
2023/12/30 09:59:30;;;;;;;4.90;1.80;;;7.80;99.90;;;;;;6139825;23;20087;-37
2023/12/30 10:01:56;;;;;;;10.13;2.15;;;7.80;99.90;;;;;;6140517;23;20058;-36
2023/12/30 10:04:22;;;;;;;6.53;2.05;;;7.90;99.90;;;;;;6138642;23;20083;-36
2023/12/30 10:06:51;;;;;;;9.13;1.80;;;7.90;99.90;;;;;;6140982;23;20092;-36
2023/12/30 10:09:18;;;;;;;8.60;1.75;;;8.00;99.90;;;;;;6140403;23;20008;-37
2023/12/30 10:11:46;;;;;;;7.15;1.90;;;8.00;99.90;;;;;;6140620;23;20120;-37
2023/12/30 10:14:11;;;;;;;6.43;1.70;;;8.00;99.90;;;;;;6139572;23;20002;-36
2023/12/30 10:16:37;;;;;;;5.82;2.03;;;8.10;99.90;;;;;;6140681;23;20087;-36
2023/12/30 10:19:13;;;;;;;6.18;2.13;;;8.10;99.90;;;;;;6138675;23;20012;-36
2023/12/30 10:21:39;;;;;;;7.82;1.55;;;8.10;99.90;;;;;;6140382;23;20012;-36
2023/12/30 10:24:06;;;;;;;9.55;2.00;;;8.20;99.90;;;;;;6139292;23;20579;-36
2023/12/30 10:26:33;;;;;;;8.77;2.15;;;8.20;99.90;;;;;;6140576;23;20006;-36
2023/12/30 10:29:00;;;;;;;7.70;2.13;;;8.20;99.90;;;;;;6139337;23;20523;-36
2023/12/30 10:31:25;;;;;;;4.97;1.65;;;8.20;99.90;;;;;;6138544;23;20010;-37
2023/12/30 10:33:53;;;;;;;5.05;1.88;;;8.30;99.90;;;;;;6139517;23;20451;-38
2023/12/30 10:36:19;;;;;;;10.43;2.13;;;8.30;99.90;;;;;;6137144;23;20006;-37
2023/12/30 10:38:46;;;;;;;7.03;2.40;;;8.40;99.90;;;;;;6139132;23;20032;-37
2023/12/30 10:41:12;;;;;;;6.60;2.30;;;8.40;99.90;;;;;;6139977;23;20056;-35
2023/12/30 10:43:39;;;;;;;5.80;2.38;;;8.50;99.90;;;;;;6140830;23;20017;-37
2023/12/30 10:46:12;;;;;;;9.57;2.15;;;8.50;99.90;;;;;;6138526;23;20001;-36
2023/12/30 10:48:53;;;;;;;10.50;3.08;;;8.50;99.90;;;;;;6139062;23;20304;-37
2023/12/30 10:51:29;;;;;;;10.43;2.70;;;8.60;99.90;;;;;;6138696;23;20006;-37
2023/12/30 10:54:06;;;;;;;8.30;2.17;;;8.60;99.90;;;;;;6139145;23;20081;-37
2023/12/30 10:56:40;;;;;;;8.55;2.15;;;8.60;99.90;;;;;;6139404;23;20005;-36
2023/12/30 10:59:07;;;;;;;9.77;2.55;;;8.60;99.90;;;;;;6137968;23;20019;-36
2023/12/30 11:01:34;;;;;;;7.05;2.20;;;8.60;99.90;;;;;;6139360;23;20019;-36
2023/12/30 11:04:11;;;;;;;6.93;2.40;;;8.70;99.90;;;;;;6139244;23;20017;-36
2023/12/30 11:06:59;;;;;;;11.52;2.53;;;8.60;99.90;;;;;;6138676;23;20382;-36
2023/12/30 11:09:27;;;;;;;8.40;2.20;;;8.70;99.90;;;;;;6138201;23;20075;-36
2023/12/30 11:11:55;;;;;;;10.10;2.75;;;8.70;99.90;;;;;;6139698;23;20679;-36
2023/12/30 11:14:21;;;;;;;8.77;2.45;;;8.70;99.90;;;;;;6137771;23;20036;-36
2023/12/30 11:16:50;;;;;;;10.23;2.60;;;8.70;99.90;;;;;;6139416;23;20095;-36
2023/12/30 11:19:29;;;;;;;10.40;3.22;;;8.70;99.90;;;;;;6138064;23;20103;-36
2023/12/30 11:21:57;;;;;;;10.18;2.38;;;8.70;99.90;;;;;;6137618;23;20009;-36
2023/12/30 11:24:26;;;;;;;8.45;2.17;;;8.80;99.90;;;;;;6138909;23;20017;-36
2023/12/30 11:26:53;;;;;;;5.55;2.10;;;8.80;99.90;;;;;;6139125;23;20006;-36
2023/12/30 11:29:25;;;;;;;11.23;3.00;;;8.80;99.90;;;;;;6137741;23;20061;-36
2023/12/30 11:31:52;;;;;;;9.98;2.95;;;8.80;99.90;;;;;;6139358;23;20083;-37
2023/12/30 11:34:19;;;;;;;7.07;2.45;;;8.90;99.90;;;;;;6137306;23;20064;-36
2023/12/30 11:36:46;;;;;;;9.57;2.92;;;8.90;99.90;;;;;;6139678;23;20330;-35
2023/12/30 11:39:18;;;;;;;10.85;3.78;;;8.90;99.90;;;;;;6138769;23;20005;-35
2023/12/30 11:41:44;;;;;;;9.85;3.83;;;8.90;99.90;;;;;;6138456;23;20013;-35
2023/12/30 11:44:10;;;;;;;7.50;2.95;;;8.90;99.90;;;;;;6138076;23;20341;-36
2023/12/30 11:46:36;;;;;;;8.10;3.60;;;9.00;99.90;;;;;;6138752;23;20504;-35
2023/12/30 11:49:01;;;;;;;8.18;3.15;;;9.00;99.90;;;;;;6137906;23;20005;-36
2023/12/30 11:51:31;;;;;;;10.25;3.25;;;9.10;99.90;;;;;;6138288;23;20013;-35
2023/12/30 11:54:00;;;;;;;10.68;3.50;;;9.10;99.90;;;;;;6138672;23;20511;-35
2023/12/30 11:56:26;;;;;;;10.18;3.80;;;9.10;99.90;;;;;;6138338;23;20005;-36
2023/12/30 11:58:52;;;;;;;10.30;3.53;;;9.20;99.90;;;;;;6138305;23;20020;-36
2023/12/30 12:01:18;;;;;;;11.02;4.53;;;9.20;99.90;;;;;;6138569;23;20027;-35
2023/12/30 12:03:44;;;;;;;8.55;3.30;;;9.20;99.90;;;;;;6138149;23;20028;-35
2023/12/30 12:06:11;;;;;;;9.48;4.07;;;9.30;99.90;;;;;;6138213;23;20009;-35
2023/12/30 12:08:38;;;;;;;11.43;4.80;;;9.30;99.90;;;;;;6139659;23;20016;-35
2023/12/30 12:11:06;;;;;;;8.73;3.95;;;9.30;99.90;;;;;;6138101;23;20508;-43
2023/12/30 12:13:32;;;;;;;12.18;4.20;;;9.40;99.90;;;;;;6137952;23;20447;-35
2023/12/30 12:15:58;;;;;;;14.32;4.68;;;9.40;99.90;;;;;;6138016;23;20002;-37
2023/12/30 12:18:24;;;;;;;11.80;4.70;;;9.40;99.90;;;;;;6136725;23;20016;-36
2023/12/30 12:21:03;;;;;;;12.70;4.60;;;9.40;99.90;;;;;;6138457;23;20084;-36
2023/12/30 12:23:30;;;;;;;12.68;4.63;;;9.50;99.90;;;;;;6135803;23;20314;-36
2023/12/30 12:25:57;;;;;;;14.48;4.40;;;9.50;99.90;;;;;;6139060;23;20010;-36
2023/12/30 12:28:23;;;;;;;12.32;4.10;;;9.50;99.90;;;;;;6139849;23;20005;-36
2023/12/30 12:30:49;;;;;;;10.98;5.00;;;9.50;99.90;;;;;;6139866;23;20085;-35
2023/12/30 12:33:17;;;;;;;16.40;5.35;;;9.60;99.90;;;;;;6141034;23;20009;-36
2023/12/30 12:35:43;;;;;;;13.95;5.80;;;9.60;99.90;;;;;;6140506;23;20006;-36
2023/12/30 12:38:10;;;;;;;13.80;5.25;;;9.60;99.90;;;;;;6140070;23;20009;-35
2023/12/30 12:40:35;;;;;;;12.43;5.07;;;9.60;99.90;;;;;;6140894;23;20096;-36
2023/12/30 12:43:01;;;;;;;10.63;5.18;;;9.60;99.90;;;;;;6140213;23;20105;-35
2023/12/30 12:45:27;;;;;;;11.10;5.22;;;9.60;99.90;;;;;;6139819;23;20001;-36
2023/12/30 12:47:52;;;;;;;12.93;5.63;;;9.60;99.90;;;;;;6140430;23;20010;-36
2023/12/30 12:50:18;;;;;;;15.00;5.75;;;9.60;99.90;;;;;;6140093;23;20776;-36
2023/12/30 12:52:44;;;;;;;14.10;4.63;;;9.70;99.90;;;;;;6140562;23;20107;-36